createdAt,value
2022-07-30T00:01:28.651Z,1.13
2022-07-30T00:04:00.504Z,1.10
2022-07-30T00:06:32.885Z,1.20
2022-07-30T00:09:04.562Z,1.00
2022-07-30T00:11:36.229Z,1.47
2022-07-30T00:14:08.144Z,1.10
2022-07-30T00:16:39.939Z,1.10
2022-07-30T00:19:12.561Z,1.60
2022-07-30T00:21:44.666Z,1.40
2022-07-30T00:24:16.381Z,1.40
2022-07-30T00:26:48.242Z,1.20
2022-07-30T00:29:20.241Z,1.20
2022-07-30T00:31:51.924Z,1.43
2022-07-30T00:34:23.572Z,1.30
2022-07-30T00:36:56.689Z,1.00
2022-07-30T00:39:29.834Z,1.10
2022-07-30T00:42:02.957Z,1.40
2022-07-30T00:44:34.600Z,1.40
2022-07-30T00:47:06.358Z,1.10
2022-07-30T00:49:42.588Z,1.43
2022-07-30T00:52:16.130Z,1.10
2022-07-30T00:54:48.131Z,1.30
2022-07-30T00:57:19.904Z,1.00
2022-07-30T00:59:51.587Z,1.20
2022-07-30T01:02:23.511Z,1.30
2022-07-30T01:04:55.272Z,1.30
2022-07-30T01:07:27.127Z,1.30
2022-07-30T01:09:59.053Z,1.37
2022-07-30T01:12:30.938Z,1.23
2022-07-30T01:15:04.981Z,1.27
2022-07-30T01:17:36.926Z,1.40
2022-07-30T01:20:11.908Z,1.20
2022-07-30T01:22:50.145Z,1.30
2022-07-30T01:25:32.057Z,1.07
2022-07-30T01:28:10.138Z,1.40
2022-07-30T01:30:42.884Z,1.10
2022-07-30T01:33:15.180Z,1.40
2022-07-30T01:35:47.295Z,1.30
2022-07-30T01:38:21.995Z,1.27
2022-07-30T01:40:54.289Z,1.50
2022-07-30T01:43:26.344Z,1.13
2022-07-30T01:45:59.014Z,1.30
2022-07-30T01:48:31.518Z,1.60
2022-07-30T01:51:05.508Z,1.23
2022-07-30T01:53:39.191Z,1.30
2022-07-30T01:56:12.366Z,1.20
2022-07-30T01:58:48.431Z,1.13
2022-07-30T02:01:28.920Z,1.30
2022-07-30T02:04:05.636Z,1.10
2022-07-30T02:06:41.863Z,1.47
2022-07-30T02:09:18.124Z,1.30
2022-07-30T02:12:08.574Z,1.30
2022-07-30T02:14:52.488Z,1.27
2022-07-30T02:17:30.366Z,1.47
2022-07-30T02:20:09.881Z,1.20
2022-07-30T02:22:44.275Z,1.30
2022-07-30T02:25:19.116Z,1.50
2022-07-30T02:27:55.002Z,1.27
2022-07-30T02:30:29.022Z,1.30
2022-07-30T02:33:03.525Z,1.43
2022-07-30T02:35:35.269Z,1.60
2022-07-30T02:38:07.194Z,1.47
2022-07-30T02:40:41.009Z,1.40
2022-07-30T02:43:15.386Z,1.30
2022-07-30T02:45:47.577Z,1.10
2022-07-30T02:48:28.351Z,1.20
2022-07-30T02:51:07.225Z,1.43
2022-07-30T02:53:38.909Z,1.40
2022-07-30T02:56:10.883Z,1.20
2022-07-30T02:58:43.089Z,1.40
2022-07-30T03:01:15.797Z,1.40
2022-07-30T03:03:47.690Z,1.40
2022-07-30T03:06:19.984Z,1.67
2022-07-30T03:08:51.634Z,1.03
2022-07-30T03:11:23.503Z,1.30
2022-07-30T03:13:55.232Z,2.47
2022-07-30T03:16:27.024Z,1.23
2022-07-30T03:19:02.566Z,1.53
2022-07-30T03:21:37.312Z,1.20
2022-07-30T03:24:09.229Z,1.40
2022-07-30T03:26:40.937Z,1.20
2022-07-30T03:29:12.841Z,1.30
2022-07-30T03:31:45.857Z,1.20
2022-07-30T03:34:17.761Z,1.33
2022-07-30T03:36:50.177Z,1.40
2022-07-30T03:39:22.158Z,1.47
2022-07-30T03:41:54.817Z,1.67
2022-07-30T03:44:27.179Z,1.20
2022-07-30T03:47:00.845Z,1.43
2022-07-30T03:49:33.481Z,1.37
2022-07-30T03:52:05.475Z,1.23
2022-07-30T03:54:37.161Z,1.50
2022-07-30T03:57:31.530Z,1.40
2022-07-30T04:00:09.817Z,1.20
2022-07-30T04:02:45.372Z,1.23
2022-07-30T04:05:41.225Z,1.20
2022-07-30T04:08:14.470Z,1.43
2022-07-30T04:10:49.201Z,1.37
2022-07-30T04:13:44.014Z,1.47
2022-07-30T04:16:40.882Z,1.10
2022-07-30T04:19:25.940Z,1.50
2022-07-30T04:25:40.124Z,1.33
2022-07-30T04:28:11.946Z,1.37
2022-07-30T04:30:43.864Z,1.50
2022-07-30T04:33:15.565Z,1.60
2022-07-30T04:36:16.601Z,1.20
2022-07-30T04:38:48.336Z,1.40
2022-07-30T04:41:20.117Z,1.40
2022-07-30T04:44:11.789Z,1.40
2022-07-30T04:46:51.566Z,1.60
2022-07-30T04:49:23.314Z,1.47
2022-07-30T04:51:55.343Z,1.33
2022-07-30T04:54:27.053Z,1.30
2022-07-30T04:56:59.132Z,1.53
2022-07-30T04:59:31.211Z,1.43
2022-07-30T05:02:06.509Z,1.60
2022-07-30T05:04:38.880Z,1.30
2022-07-30T05:07:10.572Z,1.33
2022-07-30T05:09:43.640Z,1.60
2022-07-30T05:12:16.092Z,1.20
2022-07-30T05:14:48.406Z,1.37
2022-07-30T05:17:21.807Z,1.53
2022-07-30T05:19:53.554Z,1.90
2022-07-30T05:22:30.187Z,1.57
2022-07-30T05:25:01.890Z,1.50
2022-07-30T05:27:34.161Z,1.63
2022-07-30T05:30:13.048Z,1.60
2022-07-30T05:32:49.341Z,1.50
2022-07-30T05:35:22.050Z,1.50
2022-07-30T05:37:53.774Z,1.53
2022-07-30T05:40:25.648Z,1.30
2022-07-30T05:43:32.836Z,1.63
2022-07-30T05:46:04.629Z,1.50
2022-07-30T05:48:36.777Z,1.50
2022-07-30T05:51:08.581Z,1.50
2022-07-30T05:53:40.330Z,1.65
2022-07-30T05:56:32.302Z,1.50
2022-07-30T05:59:10.321Z,1.45
2022-07-30T06:02:03.412Z,2.05
2022-07-30T06:05:04.593Z,1.50
2022-07-30T06:07:36.404Z,1.48
2022-07-30T06:10:09.971Z,1.27
2022-07-30T06:12:42.588Z,1.52
2022-07-30T06:15:15.140Z,1.65
2022-07-30T06:17:57.155Z,1.40
2022-07-30T06:21:02.903Z,1.30
2022-07-30T06:23:50.363Z,1.67
2022-07-30T06:26:41.920Z,1.85
2022-07-30T06:29:14.256Z,1.80
2022-07-30T06:31:46.241Z,1.38
2022-07-30T06:34:17.971Z,1.30
2022-07-30T06:36:49.938Z,1.80
2022-07-30T06:39:56.431Z,1.40
2022-07-30T06:42:29.332Z,1.60
2022-07-30T06:45:25.949Z,1.65
2022-07-30T06:48:16.168Z,1.20
2022-07-30T06:50:48.339Z,1.50
2022-07-30T06:53:20.220Z,1.27
2022-07-30T06:56:12.595Z,1.52
2022-07-30T06:58:52.577Z,1.35
2022-07-30T07:01:59.320Z,1.20
2022-07-30T07:04:32.633Z,1.10
2022-07-30T07:07:12.307Z,1.42
2022-07-30T07:09:45.117Z,1.60
2022-07-30T07:12:37.097Z,1.38
2022-07-30T07:15:09.933Z,1.17
2022-07-30T07:17:42.533Z,1.38
2022-07-30T07:20:43.770Z,1.40
2022-07-30T07:23:15.681Z,1.30
2022-07-30T07:25:51.953Z,1.50
2022-07-30T07:28:30.649Z,1.20
2022-07-30T07:31:05.797Z,1.15
2022-07-30T07:33:38.025Z,1.30
2022-07-30T07:36:09.781Z,1.23
2022-07-30T07:38:41.520Z,1.40
2022-07-30T07:41:13.343Z,1.65
2022-07-30T07:43:45.001Z,1.30
2022-07-30T07:46:33.724Z,1.38
2022-07-30T07:49:07.089Z,1.00
2022-07-30T07:51:47.783Z,1.17
2022-07-30T07:54:23.287Z,0.93
2022-07-30T07:56:57.122Z,1.30
2022-07-30T07:59:40.073Z,1.38
2022-07-30T08:02:14.505Z,1.38
2022-07-30T08:04:55.563Z,1.20
2022-07-30T08:07:47.554Z,1.40
2022-07-30T08:10:37.989Z,1.38
2022-07-30T08:13:49.177Z,1.35
2022-07-30T08:16:38.626Z,1.20
2022-07-30T08:19:25.098Z,1.15
2022-07-30T08:22:12.835Z,1.63
2022-07-30T08:24:44.916Z,1.30
2022-07-30T08:27:17.422Z,1.00
2022-07-30T08:29:49.247Z,1.10
2022-07-30T08:32:20.978Z,1.23
2022-07-30T08:34:53.346Z,1.25
2022-07-30T08:37:26.145Z,1.30
2022-07-30T08:39:58.732Z,1.35
2022-07-30T08:42:30.991Z,1.10
2022-07-30T08:45:02.928Z,1.23
2022-07-30T08:47:34.783Z,1.30
2022-07-30T08:50:16.692Z,1.20
2022-07-30T08:53:08.232Z,1.20
2022-07-30T08:55:41.020Z,1.20
2022-07-30T08:58:29.754Z,1.15
2022-07-30T09:01:01.633Z,1.30
2022-07-30T09:03:34.292Z,1.40
2022-07-30T09:06:07.295Z,1.25
2022-07-30T09:08:39.451Z,1.15
2022-07-30T09:11:11.224Z,1.25
2022-07-30T09:13:42.993Z,2.50
2022-07-30T09:16:22.941Z,1.50
2022-07-30T09:18:54.766Z,1.15
2022-07-30T09:21:29.332Z,1.90
2022-07-30T09:24:24.293Z,1.50
2022-07-30T09:27:14.589Z,1.23
2022-07-30T09:30:06.878Z,1.60
2022-07-30T09:32:57.756Z,1.58
2022-07-30T09:35:58.683Z,1.40
2022-07-30T09:38:52.889Z,3.13
2022-07-30T09:41:53.670Z,3.90
2022-07-30T09:44:26.877Z,1.55
2022-07-30T09:47:02.897Z,1.60
2022-07-30T09:49:43.055Z,1.95
2022-07-30T09:52:29.056Z,2.70
2022-07-30T09:55:01.306Z,2.40
2022-07-30T09:57:35.445Z,2.10
2022-07-30T10:00:23.576Z,1.90
2022-07-30T10:03:34.202Z,1.50
2022-07-30T10:06:38.078Z,1.80
2022-07-30T10:09:31.184Z,2.20
2022-07-30T10:12:04.944Z,2.10
2022-07-30T10:14:46.426Z,1.60
2022-07-30T10:17:19.920Z,1.80
2022-07-30T10:20:09.058Z,4.22
2022-07-30T10:22:59.707Z,2.25
2022-07-30T10:25:48.966Z,2.00
2022-07-30T10:28:41.010Z,2.33
2022-07-30T10:31:48.171Z,4.28
2022-07-30T10:34:05.117Z,1.83
2022-07-30T10:36:36.888Z,20.85
2022-07-30T10:39:09.500Z,10.15
2022-07-30T10:42:10.233Z,4.53
2022-07-30T10:44:51.020Z,17.48
2022-07-30T10:47:25.941Z,3.90
2022-07-30T10:50:12.100Z,3.65
2022-07-30T10:52:46.911Z,20.58
2022-07-30T10:55:36.867Z,4.28
2022-07-30T10:58:14.287Z,4.97
2022-07-30T11:00:53.758Z,15.05
2022-07-30T11:03:41.236Z,5.10
2022-07-30T11:06:16.506Z,5.15
2022-07-30T11:08:57.222Z,6.13
2022-07-30T11:12:02.038Z,6.97
2022-07-30T11:14:22.604Z,16.10
2022-07-30T11:16:55.917Z,8.55
2022-07-30T11:19:54.905Z,14.48
2022-07-30T11:22:29.717Z,24.25
2022-07-30T11:25:04.497Z,9.57
2022-07-30T11:27:46.832Z,14.75
2022-07-30T11:30:20.375Z,14.25
2022-07-30T11:32:53.067Z,14.38
2022-07-30T11:35:34.387Z,9.48
2022-07-30T11:38:18.866Z,2.50
2022-07-30T11:40:50.988Z,9.30
2022-07-30T11:43:35.752Z,11.82
2022-07-30T11:46:18.023Z,19.45
2022-07-30T11:49:05.268Z,12.02
2022-07-30T11:51:44.704Z,2.50
2022-07-30T11:54:16.462Z,12.48
2022-07-30T11:57:02.198Z,12.70
2022-07-30T11:59:53.373Z,9.07
2022-07-30T12:02:28.763Z,2.13
2022-07-30T12:05:00.386Z,1.30
2022-07-30T12:07:32.055Z,5.78
2022-07-30T12:10:16.927Z,1.40
2022-07-30T12:13:08.910Z,1.70
2022-07-30T12:15:44.997Z,1.48
2022-07-30T12:18:27.832Z,4.90
2022-07-30T12:21:00.740Z,1.40
2022-07-30T12:23:32.441Z,1.40
2022-07-30T12:26:04.330Z,1.20
2022-07-30T12:28:36.297Z,1.15
2022-07-30T12:31:08.374Z,1.23
2022-07-30T12:33:42.213Z,0.93
2022-07-30T12:36:32.856Z,1.30
2022-07-30T12:39:05.028Z,1.20
2022-07-30T12:41:43.739Z,1.63
2022-07-30T12:44:34.815Z,1.40
2022-07-30T12:47:07.536Z,2.33
2022-07-30T12:49:48.817Z,1.40
2022-07-30T12:52:30.803Z,1.52
2022-07-30T12:55:05.394Z,1.63
2022-07-30T12:57:52.381Z,4.22
2022-07-30T13:00:25.781Z,2.38
2022-07-30T13:02:57.503Z,1.23
2022-07-30T13:05:45.881Z,1.40
2022-07-30T13:08:17.782Z,1.63
2022-07-30T13:10:56.097Z,1.23
2022-07-30T13:13:28.481Z,1.85
2022-07-30T13:16:01.480Z,1.30
2022-07-30T13:18:33.870Z,2.22
2022-07-30T13:21:06.903Z,1.50
2022-07-30T13:23:39.708Z,1.20
2022-07-30T13:26:12.262Z,1.20
2022-07-30T13:28:43.969Z,1.52
2022-07-30T13:31:15.742Z,1.20
2022-07-30T13:33:47.477Z,1.40
2022-07-30T13:36:19.218Z,1.50
2022-07-30T13:38:52.272Z,1.08
2022-07-30T13:41:24.097Z,1.15
2022-07-30T13:43:55.743Z,1.23
2022-07-30T13:46:27.444Z,1.30
2022-07-30T13:48:59.516Z,1.10
2022-07-30T13:51:31.414Z,1.20
2022-07-30T13:54:03.425Z,1.15
2022-07-30T13:56:40.508Z,1.30
2022-07-30T13:59:12.724Z,1.10
2022-07-30T14:01:49.746Z,1.23
2022-07-30T14:04:21.563Z,1.23
2022-07-30T14:06:53.649Z,1.20
2022-07-30T14:09:25.425Z,1.40
2022-07-30T14:11:57.185Z,2.42
2022-07-30T14:14:28.921Z,1.27
2022-07-30T14:17:00.814Z,1.23
2022-07-30T14:19:32.758Z,1.15
2022-07-30T14:22:04.524Z,1.02
2022-07-30T14:24:36.316Z,1.10
2022-07-30T14:27:08.051Z,1.40
2022-07-30T14:29:39.716Z,1.02
2022-07-30T14:32:11.425Z,1.10
2022-07-30T14:34:49.216Z,1.35
2022-07-30T14:37:21.431Z,1.00
2022-07-30T14:39:53.071Z,1.30
2022-07-30T14:42:25.609Z,1.00
2022-07-30T14:44:57.249Z,1.20
2022-07-30T14:47:28.925Z,1.42
2022-07-30T14:50:00.817Z,1.20
2022-07-30T14:52:35.107Z,1.25
2022-07-30T14:55:07.598Z,1.23
2022-07-30T14:57:39.614Z,1.00
2022-07-30T15:00:12.373Z,1.23
2022-07-30T15:02:45.447Z,1.42
2022-07-30T15:05:17.112Z,1.10
2022-07-30T15:07:48.727Z,1.20
2022-07-30T15:10:20.450Z,0.90
2022-07-30T15:12:53.593Z,1.08
2022-07-30T15:15:25.326Z,1.00
2022-07-30T15:18:01.420Z,1.40
2022-07-30T15:20:33.218Z,1.05
2022-07-30T15:23:05.297Z,1.30
2022-07-30T15:25:37.309Z,1.30
2022-07-30T15:28:09.485Z,1.13
2022-07-30T15:30:41.388Z,1.17
2022-07-30T15:33:13.088Z,1.10
2022-07-30T15:35:44.894Z,1.15
2022-07-30T15:38:16.599Z,1.13
2022-07-30T15:40:48.936Z,1.40
2022-07-30T15:43:20.678Z,1.02
2022-07-30T15:45:56.136Z,1.20
2022-07-30T15:48:28.258Z,1.45
2022-07-30T15:51:02.153Z,1.30
2022-07-30T15:53:33.802Z,1.25
2022-07-30T15:56:05.467Z,1.20
2022-07-30T15:58:41.641Z,1.75
2022-07-30T16:01:15.349Z,1.10
2022-07-30T16:03:47.152Z,1.10
2022-07-30T16:06:19.021Z,1.40
2022-07-30T16:08:50.821Z,1.13
2022-07-30T16:11:22.564Z,1.00
2022-07-30T16:13:55.098Z,1.25
2022-07-30T16:16:26.740Z,1.08
2022-07-30T16:18:58.416Z,1.23
2022-07-30T16:21:30.201Z,1.25
2022-07-30T16:24:02.541Z,1.10
2022-07-30T16:26:36.265Z,1.20
2022-07-30T16:29:13.543Z,1.20
2022-07-30T16:31:46.343Z,1.25
2022-07-30T16:34:26.327Z,1.38
2022-07-30T16:36:58.450Z,1.10
2022-07-30T16:39:31.367Z,1.08
2022-07-30T16:42:04.534Z,1.00
2022-07-30T16:44:36.592Z,1.38
2022-07-30T16:47:11.943Z,1.27
2022-07-30T16:49:45.443Z,1.10
2022-07-30T16:52:18.228Z,1.25
2022-07-30T16:54:49.893Z,1.30
2022-07-30T16:57:21.586Z,1.13
2022-07-30T16:59:53.359Z,0.80
2022-07-30T17:02:25.108Z,1.20
2022-07-30T17:04:56.860Z,1.30
2022-07-30T17:07:28.957Z,1.30
2022-07-30T17:10:00.601Z,1.20
2022-07-30T17:12:32.360Z,1.20
2022-07-30T17:15:04.220Z,1.55
2022-07-30T17:17:35.966Z,1.65
2022-07-30T17:20:09.987Z,1.92
2022-07-30T17:22:43.149Z,2.83
2022-07-30T17:25:22.345Z,3.05
2022-07-30T17:28:10.284Z,1.40
2022-07-30T17:30:42.122Z,1.58
2022-07-30T17:33:13.744Z,1.30
2022-07-30T17:35:45.606Z,1.08
2022-07-30T17:38:17.270Z,1.30
2022-07-30T17:40:48.972Z,1.00
2022-07-30T17:43:20.629Z,1.50
2022-07-30T17:45:52.678Z,1.30
2022-07-30T17:48:24.519Z,1.30
2022-07-30T17:50:57.671Z,1.05
2022-07-30T17:53:29.357Z,1.23
2022-07-30T17:56:01.377Z,1.08
2022-07-30T17:58:33.065Z,1.42
2022-07-30T18:01:05.034Z,1.30
2022-07-30T18:03:36.828Z,1.25
2022-07-30T18:06:16.757Z,0.88
2022-07-30T18:08:48.449Z,1.30
2022-07-30T18:11:20.232Z,1.48
2022-07-30T18:13:51.865Z,1.13
2022-07-30T18:16:24.418Z,1.17
2022-07-30T18:18:56.141Z,1.10
2022-07-30T18:21:27.818Z,1.30
2022-07-30T18:23:59.530Z,1.50
2022-07-30T18:26:36.644Z,1.20
2022-07-30T18:29:13.509Z,1.20
2022-07-30T18:31:45.820Z,1.00
2022-07-30T18:34:17.520Z,1.30
2022-07-30T18:36:51.237Z,1.27
2022-07-30T18:39:23.190Z,1.30
2022-07-30T18:41:54.903Z,1.20
2022-07-30T18:44:26.617Z,1.10
2022-07-30T18:46:58.453Z,1.30
2022-07-30T18:49:38.145Z,1.20
2022-07-30T18:52:10.387Z,1.50
2022-07-30T18:54:42.198Z,1.20
2022-07-30T18:57:14.667Z,1.23
2022-07-30T18:59:46.430Z,1.00
2022-07-30T19:02:18.182Z,1.17
2022-07-30T19:04:49.811Z,1.30
2022-07-30T19:07:21.840Z,1.40
2022-07-30T19:09:56.037Z,1.15
2022-07-30T19:12:28.077Z,1.40
2022-07-30T19:14:59.869Z,1.55
2022-07-30T19:17:45.421Z,1.40
2022-07-30T19:20:19.399Z,1.15
2022-07-30T19:22:51.414Z,1.33
2022-07-30T19:25:23.075Z,1.20
2022-07-30T19:27:55.276Z,1.23
2022-07-30T19:30:27.497Z,1.20
2022-07-30T19:33:07.561Z,1.10
2022-07-30T19:35:41.044Z,1.30
2022-07-30T19:38:22.043Z,1.30
2022-07-30T19:40:56.125Z,1.30
2022-07-30T19:43:28.609Z,1.50
2022-07-30T19:46:00.303Z,1.25
2022-07-30T19:48:32.507Z,1.15
2022-07-30T19:51:04.533Z,1.17
2022-07-30T19:53:36.244Z,1.30
2022-07-30T19:56:10.794Z,1.23
2022-07-30T19:58:43.280Z,1.30
2022-07-30T20:01:16.421Z,1.30
2022-07-30T20:03:48.140Z,1.25
2022-07-30T20:06:20.374Z,1.77
2022-07-30T20:08:52.474Z,1.35
2022-07-30T20:11:36.164Z,1.20
2022-07-30T20:14:08.337Z,1.40
2022-07-30T20:16:40.800Z,1.10
2022-07-30T20:19:15.585Z,1.58
2022-07-30T20:21:55.939Z,1.45
2022-07-30T20:24:29.266Z,1.38
2022-07-30T20:27:01.802Z,1.60
2022-07-30T20:29:53.441Z,1.38
2022-07-30T20:32:25.803Z,1.25
2022-07-30T20:34:57.575Z,1.40
2022-07-30T20:37:29.985Z,1.30
2022-07-30T20:40:02.223Z,1.50
2022-07-30T20:42:33.904Z,1.40
2022-07-30T20:45:05.997Z,1.40
2022-07-30T20:47:41.199Z,1.15
2022-07-30T20:50:14.406Z,1.45
2022-07-30T20:52:46.562Z,1.42
2022-07-30T20:55:19.212Z,1.50
2022-07-30T20:58:02.824Z,1.15
2022-07-30T21:00:49.985Z,1.40
2022-07-30T21:03:22.589Z,1.40
2022-07-30T21:05:54.299Z,1.67
2022-07-30T21:08:25.986Z,2.30
2022-07-30T21:10:58.084Z,1.45
2022-07-30T21:13:32.354Z,1.38
2022-07-30T21:16:04.287Z,1.50
2022-07-30T21:18:50.170Z,1.50
2022-07-30T21:21:30.687Z,1.48
2022-07-30T21:24:19.282Z,1.48
2022-07-30T21:26:52.108Z,1.42
2022-07-30T21:29:23.846Z,1.60
2022-07-30T21:32:01.714Z,1.73
2022-07-30T21:34:40.145Z,1.60
2022-07-30T21:37:15.640Z,1.50
2022-07-30T21:39:47.605Z,1.73
2022-07-30T21:42:29.407Z,1.53
2022-07-30T21:45:02.242Z,1.47
2022-07-30T21:47:34.899Z,1.40
2022-07-30T21:50:07.233Z,1.40
2022-07-30T21:52:40.748Z,1.60
2022-07-30T21:55:13.143Z,1.77
2022-07-30T21:57:45.508Z,1.83
2022-07-30T22:00:22.387Z,1.50
2022-07-30T22:02:55.716Z,1.77
2022-07-30T22:05:38.447Z,1.52
2022-07-30T22:08:12.745Z,1.40
2022-07-30T22:10:45.598Z,1.97
2022-07-30T22:13:22.350Z,1.30
2022-07-30T22:15:55.053Z,1.70
2022-07-30T22:18:26.906Z,1.50
2022-07-30T22:20:58.821Z,1.57
2022-07-30T22:23:30.449Z,1.30
2022-07-30T22:26:03.326Z,1.50
2022-07-30T22:28:35.766Z,1.37
2022-07-30T22:31:14.159Z,1.60
2022-07-30T22:33:49.766Z,1.67
2022-07-30T22:36:25.279Z,1.50
2022-07-30T22:38:59.188Z,1.40
2022-07-30T22:41:48.765Z,1.67
2022-07-30T22:44:20.459Z,1.20
2022-07-30T22:46:56.164Z,1.43
2022-07-30T22:49:46.414Z,1.55
2022-07-30T22:52:20.854Z,1.50
2022-07-30T22:55:10.466Z,1.40
2022-07-30T22:57:44.072Z,1.50
2022-07-30T23:00:28.164Z,1.63
2022-07-30T23:03:00.404Z,1.30
2022-07-30T23:05:35.170Z,1.40
2022-07-30T23:08:07.073Z,1.55
2022-07-30T23:10:38.817Z,1.42
2022-07-30T23:13:10.822Z,1.33
2022-07-30T23:15:42.677Z,1.13
2022-07-30T23:18:15.891Z,1.42
2022-07-30T23:20:47.593Z,1.30
2022-07-30T23:23:19.343Z,1.25
2022-07-30T23:25:51.083Z,1.45
2022-07-30T23:28:22.812Z,1.50
2022-07-30T23:30:54.636Z,1.30
2022-07-30T23:33:26.336Z,1.30
2022-07-30T23:36:00.222Z,1.40
2022-07-30T23:38:31.896Z,1.13
2022-07-30T23:41:06.876Z,1.73
2022-07-30T23:43:38.540Z,1.48
2022-07-30T23:46:11.291Z,1.38
2022-07-30T23:48:43.029Z,1.58
2022-07-30T23:51:14.905Z,1.20
2022-07-30T23:53:46.974Z,1.50
2022-07-30T23:56:18.651Z,1.40
2022-07-30T23:58:50.344Z,1.30
